sensor_id;sensor_type;location;lat;lon;timestamp;P1;durP1;ratioP1;P2;durP2;ratioP2
60969;SDS011;46841;48.938;9.502;2023-11-18T00:01:44;0.80;;;0.80;;
60969;SDS011;46841;48.938;9.502;2023-11-18T00:04:09;0.80;;;0.80;;
60969;SDS011;46841;48.938;9.502;2023-11-18T00:06:44;0.70;;;0.70;;
60969;SDS011;46841;48.938;9.502;2023-11-18T00:09:10;0.70;;;0.70;;
60969;SDS011;46841;48.938;9.502;2023-11-18T00:11:39;0.80;;;0.80;;
60969;SDS011;46841;48.938;9.502;2023-11-18T00:14:06;0.70;;;0.70;;
60969;SDS011;46841;48.938;9.502;2023-11-18T00:16:32;0.73;;;0.73;;
60969;SDS011;46841;48.938;9.502;2023-11-18T00:18:59;0.80;;;0.80;;
60969;SDS011;46841;48.938;9.502;2023-11-18T00:21:25;0.80;;;0.80;;
60969;SDS011;46841;48.938;9.502;2023-11-18T00:23:50;0.80;;;0.80;;
60969;SDS011;46841;48.938;9.502;2023-11-18T00:26:16;0.70;;;0.70;;
60969;SDS011;46841;48.938;9.502;2023-11-18T00:28:44;0.80;;;0.80;;
60969;SDS011;46841;48.938;9.502;2023-11-18T00:31:09;0.80;;;0.80;;
60969;SDS011;46841;48.938;9.502;2023-11-18T00:33:35;0.82;;;0.82;;
60969;SDS011;46841;48.938;9.502;2023-11-18T00:36:02;0.70;;;0.70;;
60969;SDS011;46841;48.938;9.502;2023-11-18T00:38:28;0.80;;;0.80;;
60969;SDS011;46841;48.938;9.502;2023-11-18T00:40:53;0.80;;;0.80;;
60969;SDS011;46841;48.938;9.502;2023-11-18T00:43:19;0.80;;;0.80;;
60969;SDS011;46841;48.938;9.502;2023-11-18T00:45:44;0.80;;;0.80;;
60969;SDS011;46841;48.938;9.502;2023-11-18T00:48:10;0.80;;;0.80;;
60969;SDS011;46841;48.938;9.502;2023-11-18T00:50:35;0.80;;;0.80;;
60969;SDS011;46841;48.938;9.502;2023-11-18T00:53:00;0.73;;;0.73;;
60969;SDS011;46841;48.938;9.502;2023-11-18T00:55:26;0.70;;;0.70;;
60969;SDS011;46841;48.938;9.502;2023-11-18T00:57:52;0.80;;;0.80;;
60969;SDS011;46841;48.938;9.502;2023-11-18T01:00:18;0.77;;;0.77;;
60969;SDS011;46841;48.938;9.502;2023-11-18T01:02:47;0.80;;;0.80;;
60969;SDS011;46841;48.938;9.502;2023-11-18T01:05:14;0.88;;;0.88;;
60969;SDS011;46841;48.938;9.502;2023-11-18T01:07:40;0.80;;;0.80;;
60969;SDS011;46841;48.938;9.502;2023-11-18T01:10:06;0.85;;;0.85;;
60969;SDS011;46841;48.938;9.502;2023-11-18T01:12:35;0.80;;;0.80;;
60969;SDS011;46841;48.938;9.502;2023-11-18T01:15:00;0.90;;;0.90;;
60969;SDS011;46841;48.938;9.502;2023-11-18T01:17:26;0.90;;;0.90;;
60969;SDS011;46841;48.938;9.502;2023-11-18T01:19:51;0.80;;;0.80;;
60969;SDS011;46841;48.938;9.502;2023-11-18T01:22:17;0.80;;;0.80;;
60969;SDS011;46841;48.938;9.502;2023-11-18T01:24:43;0.80;;;0.80;;
60969;SDS011;46841;48.938;9.502;2023-11-18T01:27:09;0.80;;;0.80;;
60969;SDS011;46841;48.938;9.502;2023-11-18T01:29:37;0.70;;;0.70;;
60969;SDS011;46841;48.938;9.502;2023-11-18T01:32:04;0.90;;;0.90;;
60969;SDS011;46841;48.938;9.502;2023-11-18T01:34:35;0.80;;;0.80;;
60969;SDS011;46841;48.938;9.502;2023-11-18T01:37:04;0.80;;;0.80;;
60969;SDS011;46841;48.938;9.502;2023-11-18T01:39:33;0.80;;;0.80;;
60969;SDS011;46841;48.938;9.502;2023-11-18T01:41:59;0.80;;;0.80;;
60969;SDS011;46841;48.938;9.502;2023-11-18T01:44:25;0.80;;;0.80;;
60969;SDS011;46841;48.938;9.502;2023-11-18T01:46:53;0.80;;;0.80;;
60969;SDS011;46841;48.938;9.502;2023-11-18T01:49:22;0.70;;;0.70;;
60969;SDS011;46841;48.938;9.502;2023-11-18T01:51:49;0.80;;;0.80;;
60969;SDS011;46841;48.938;9.502;2023-11-18T01:54:18;0.80;;;0.80;;
60969;SDS011;46841;48.938;9.502;2023-11-18T01:56:47;0.80;;;0.80;;
60969;SDS011;46841;48.938;9.502;2023-11-18T01:59:14;0.90;;;0.90;;
60969;SDS011;46841;48.938;9.502;2023-11-18T02:01:50;0.85;;;0.85;;
60969;SDS011;46841;48.938;9.502;2023-11-18T02:04:18;0.80;;;0.80;;
60969;SDS011;46841;48.938;9.502;2023-11-18T02:06:45;0.82;;;0.82;;
60969;SDS011;46841;48.938;9.502;2023-11-18T02:09:14;0.80;;;0.80;;
60969;SDS011;46841;48.938;9.502;2023-11-18T02:14:35;0.77;;;0.77;;
60969;SDS011;46841;48.938;9.502;2023-11-18T02:17:04;0.90;;;0.90;;
60969;SDS011;46841;48.938;9.502;2023-11-18T02:19:31;0.90;;;0.90;;
60969;SDS011;46841;48.938;9.502;2023-11-18T02:21:59;0.70;;;0.70;;
60969;SDS011;46841;48.938;9.502;2023-11-18T02:24:30;0.80;;;0.80;;
60969;SDS011;46841;48.938;9.502;2023-11-18T02:26:58;0.77;;;0.77;;
60969;SDS011;46841;48.938;9.502;2023-11-18T02:29:25;0.80;;;0.80;;
60969;SDS011;46841;48.938;9.502;2023-11-18T02:31:52;0.80;;;0.80;;
60969;SDS011;46841;48.938;9.502;2023-11-18T02:34:22;0.80;;;0.80;;
60969;SDS011;46841;48.938;9.502;2023-11-18T02:36:52;0.70;;;0.70;;
60969;SDS011;46841;48.938;9.502;2023-11-18T02:39:32;0.90;;;0.90;;
60969;SDS011;46841;48.938;9.502;2023-11-18T02:42:05;0.80;;;0.80;;
60969;SDS011;46841;48.938;9.502;2023-11-18T02:44:35;0.80;;;0.80;;
60969;SDS011;46841;48.938;9.502;2023-11-18T02:47:03;0.77;;;0.77;;
60969;SDS011;46841;48.938;9.502;2023-11-18T02:49:34;0.80;;;0.80;;
60969;SDS011;46841;48.938;9.502;2023-11-18T02:51:59;0.82;;;0.82;;
60969;SDS011;46841;48.938;9.502;2023-11-18T02:54:25;0.88;;;0.88;;
60969;SDS011;46841;48.938;9.502;2023-11-18T02:56:51;0.80;;;0.80;;
60969;SDS011;46841;48.938;9.502;2023-11-18T02:59:16;0.80;;;0.80;;
60969;SDS011;46841;48.938;9.502;2023-11-18T03:01:42;0.75;;;0.75;;
60969;SDS011;46841;48.938;9.502;2023-11-18T03:04:08;0.80;;;0.80;;
60969;SDS011;46841;48.938;9.502;2023-11-18T03:06:33;0.70;;;0.70;;
60969;SDS011;46841;48.938;9.502;2023-11-18T03:09:00;0.80;;;0.80;;
60969;SDS011;46841;48.938;9.502;2023-11-18T03:11:26;0.85;;;0.85;;
60969;SDS011;46841;48.938;9.502;2023-11-18T03:13:55;0.80;;;0.80;;
60969;SDS011;46841;48.938;9.502;2023-11-18T03:16:22;0.80;;;0.80;;
60969;SDS011;46841;48.938;9.502;2023-11-18T03:18:49;0.80;;;0.80;;
60969;SDS011;46841;48.938;9.502;2023-11-18T03:21:15;0.80;;;0.80;;
60969;SDS011;46841;48.938;9.502;2023-11-18T03:23:41;0.80;;;0.80;;
60969;SDS011;46841;48.938;9.502;2023-11-18T03:26:07;0.80;;;0.80;;
60969;SDS011;46841;48.938;9.502;2023-11-18T03:28:33;0.80;;;0.80;;
60969;SDS011;46841;48.938;9.502;2023-11-18T03:31:02;0.77;;;0.77;;
60969;SDS011;46841;48.938;9.502;2023-11-18T03:33:29;0.80;;;0.80;;
60969;SDS011;46841;48.938;9.502;2023-11-18T03:35:54;0.80;;;0.80;;
60969;SDS011;46841;48.938;9.502;2023-11-18T03:38:21;0.80;;;0.80;;
60969;SDS011;46841;48.938;9.502;2023-11-18T03:40:47;0.80;;;0.80;;
60969;SDS011;46841;48.938;9.502;2023-11-18T03:43:12;0.80;;;0.80;;
60969;SDS011;46841;48.938;9.502;2023-11-18T03:45:41;0.85;;;0.85;;
60969;SDS011;46841;48.938;9.502;2023-11-18T03:48:07;0.80;;;0.80;;
60969;SDS011;46841;48.938;9.502;2023-11-18T03:50:33;0.80;;;0.80;;
60969;SDS011;46841;48.938;9.502;2023-11-18T03:52:59;0.80;;;0.80;;
60969;SDS011;46841;48.938;9.502;2023-11-18T03:55:27;0.80;;;0.80;;
60969;SDS011;46841;48.938;9.502;2023-11-18T03:57:52;0.80;;;0.80;;
60969;SDS011;46841;48.938;9.502;2023-11-18T04:00:19;0.70;;;0.70;;
60969;SDS011;46841;48.938;9.502;2023-11-18T04:02:45;0.80;;;0.80;;
60969;SDS011;46841;48.938;9.502;2023-11-18T04:05:11;0.80;;;0.80;;
60969;SDS011;46841;48.938;9.502;2023-11-18T04:07:37;0.88;;;0.88;;
60969;SDS011;46841;48.938;9.502;2023-11-18T04:10:03;0.80;;;0.80;;
60969;SDS011;46841;48.938;9.502;2023-11-18T04:12:34;0.77;;;0.77;;
60969;SDS011;46841;48.938;9.502;2023-11-18T04:15:00;0.75;;;0.75;;
60969;SDS011;46841;48.938;9.502;2023-11-18T04:17:25;0.73;;;0.73;;
60969;SDS011;46841;48.938;9.502;2023-11-18T04:19:53;0.80;;;0.80;;
60969;SDS011;46841;48.938;9.502;2023-11-18T04:22:21;0.80;;;0.80;;
60969;SDS011;46841;48.938;9.502;2023-11-18T04:24:47;0.80;;;0.80;;
60969;SDS011;46841;48.938;9.502;2023-11-18T04:27:12;0.80;;;0.80;;
60969;SDS011;46841;48.938;9.502;2023-11-18T04:29:38;0.80;;;0.80;;
60969;SDS011;46841;48.938;9.502;2023-11-18T04:32:05;0.63;;;0.63;;
60969;SDS011;46841;48.938;9.502;2023-11-18T04:34:35;0.80;;;0.80;;
60969;SDS011;46841;48.938;9.502;2023-11-18T04:37:01;0.80;;;0.80;;
60969;SDS011;46841;48.938;9.502;2023-11-18T04:39:27;0.90;;;0.90;;
60969;SDS011;46841;48.938;9.502;2023-11-18T04:41:53;0.82;;;0.82;;
60969;SDS011;46841;48.938;9.502;2023-11-18T04:44:19;0.80;;;0.80;;
60969;SDS011;46841;48.938;9.502;2023-11-18T04:46:44;0.80;;;0.80;;
60969;SDS011;46841;48.938;9.502;2023-11-18T04:49:10;0.80;;;0.80;;
60969;SDS011;46841;48.938;9.502;2023-11-18T04:51:35;0.80;;;0.80;;
60969;SDS011;46841;48.938;9.502;2023-11-18T04:54:01;0.80;;;0.80;;
60969;SDS011;46841;48.938;9.502;2023-11-18T04:56:28;0.60;;;0.60;;
60969;SDS011;46841;48.938;9.502;2023-11-18T04:58:54;0.90;;;0.90;;
60969;SDS011;46841;48.938;9.502;2023-11-18T05:01:19;0.80;;;0.80;;
60969;SDS011;46841;48.938;9.502;2023-11-18T05:03:45;0.80;;;0.80;;
60969;SDS011;46841;48.938;9.502;2023-11-18T05:06:10;0.80;;;0.80;;
60969;SDS011;46841;48.938;9.502;2023-11-18T05:08:35;0.85;;;0.85;;
60969;SDS011;46841;48.938;9.502;2023-11-18T05:11:01;0.85;;;0.85;;
60969;SDS011;46841;48.938;9.502;2023-11-18T05:13:27;0.80;;;0.80;;
60969;SDS011;46841;48.938;9.502;2023-11-18T05:15:52;0.80;;;0.80;;
60969;SDS011;46841;48.938;9.502;2023-11-18T05:18:19;0.90;;;0.90;;
60969;SDS011;46841;48.938;9.502;2023-11-18T05:20:44;0.90;;;0.90;;
60969;SDS011;46841;48.938;9.502;2023-11-18T05:23:10;0.80;;;0.80;;
60969;SDS011;46841;48.938;9.502;2023-11-18T05:25:37;0.80;;;0.80;;
60969;SDS011;46841;48.938;9.502;2023-11-18T05:28:04;0.80;;;0.80;;
60969;SDS011;46841;48.938;9.502;2023-11-18T05:30:33;0.80;;;0.80;;
60969;SDS011;46841;48.938;9.502;2023-11-18T05:33:05;0.80;;;0.80;;
60969;SDS011;46841;48.938;9.502;2023-11-18T05:35:31;0.80;;;0.80;;
60969;SDS011;46841;48.938;9.502;2023-11-18T05:37:58;0.70;;;0.70;;
60969;SDS011;46841;48.938;9.502;2023-11-18T05:40:24;0.70;;;0.70;;
60969;SDS011;46841;48.938;9.502;2023-11-18T05:42:50;0.90;;;0.90;;
60969;SDS011;46841;48.938;9.502;2023-11-18T05:45:17;0.90;;;0.90;;
60969;SDS011;46841;48.938;9.502;2023-11-18T05:47:55;0.80;;;0.80;;
60969;SDS011;46841;48.938;9.502;2023-11-18T05:50:22;0.85;;;0.85;;
60969;SDS011;46841;48.938;9.502;2023-11-18T05:52:50;0.80;;;0.80;;
60969;SDS011;46841;48.938;9.502;2023-11-18T05:55:16;0.70;;;0.70;;
60969;SDS011;46841;48.938;9.502;2023-11-18T05:57:41;0.80;;;0.80;;
60969;SDS011;46841;48.938;9.502;2023-11-18T06:00:14;0.90;;;0.90;;
60969;SDS011;46841;48.938;9.502;2023-11-18T06:02:41;0.80;;;0.80;;
60969;SDS011;46841;48.938;9.502;2023-11-18T06:05:07;0.80;;;0.80;;
60969;SDS011;46841;48.938;9.502;2023-11-18T06:07:33;0.90;;;0.90;;
60969;SDS011;46841;48.938;9.502;2023-11-18T06:10:00;0.80;;;0.80;;
60969;SDS011;46841;48.938;9.502;2023-11-18T06:12:26;0.80;;;0.80;;
60969;SDS011;46841;48.938;9.502;2023-11-18T06:14:52;0.80;;;0.80;;
60969;SDS011;46841;48.938;9.502;2023-11-18T06:17:17;0.90;;;0.90;;
60969;SDS011;46841;48.938;9.502;2023-11-18T06:19:44;0.90;;;0.90;;
60969;SDS011;46841;48.938;9.502;2023-11-18T06:22:09;0.80;;;0.80;;
60969;SDS011;46841;48.938;9.502;2023-11-18T06:24:35;0.90;;;0.90;;
60969;SDS011;46841;48.938;9.502;2023-11-18T06:27:04;0.80;;;0.80;;
60969;SDS011;46841;48.938;9.502;2023-11-18T06:29:38;0.90;;;0.90;;
60969;SDS011;46841;48.938;9.502;2023-11-18T06:32:05;1.00;;;1.00;;
60969;SDS011;46841;48.938;9.502;2023-11-18T06:34:31;0.90;;;0.90;;
60969;SDS011;46841;48.938;9.502;2023-11-18T06:36:56;0.88;;;0.88;;
60969;SDS011;46841;48.938;9.502;2023-11-18T06:39:22;0.90;;;0.90;;
60969;SDS011;46841;48.938;9.502;2023-11-18T06:41:54;1.00;;;1.00;;
60969;SDS011;46841;48.938;9.502;2023-11-18T06:46:48;1.00;;;1.00;;
60969;SDS011;46841;48.938;9.502;2023-11-18T06:49:16;0.90;;;0.90;;
60969;SDS011;46841;48.938;9.502;2023-11-18T06:51:42;1.00;;;1.00;;
60969;SDS011;46841;48.938;9.502;2023-11-18T06:54:08;0.90;;;0.90;;
60969;SDS011;46841;48.938;9.502;2023-11-18T06:56:34;0.98;;;0.98;;
60969;SDS011;46841;48.938;9.502;2023-11-18T06:59:06;0.90;;;0.90;;
60969;SDS011;46841;48.938;9.502;2023-11-18T07:01:33;0.90;;;0.90;;
60969;SDS011;46841;48.938;9.502;2023-11-18T07:04:03;1.00;;;1.00;;
60969;SDS011;46841;48.938;9.502;2023-11-18T07:06:33;1.00;;;1.00;;
60969;SDS011;46841;48.938;9.502;2023-11-18T07:09:04;1.00;;;1.00;;
60969;SDS011;46841;48.938;9.502;2023-11-18T07:11:42;0.90;;;0.90;;
60969;SDS011;46841;48.938;9.502;2023-11-18T07:14:09;0.90;;;0.90;;
60969;SDS011;46841;48.938;9.502;2023-11-18T07:16:35;1.02;;;1.02;;
60969;SDS011;46841;48.938;9.502;2023-11-18T07:19:03;0.93;;;0.93;;
60969;SDS011;46841;48.938;9.502;2023-11-18T07:21:29;0.90;;;0.90;;
60969;SDS011;46841;48.938;9.502;2023-11-18T07:23:54;1.00;;;1.00;;
60969;SDS011;46841;48.938;9.502;2023-11-18T07:26:20;0.90;;;0.90;;
60969;SDS011;46841;48.938;9.502;2023-11-18T07:28:45;0.80;;;0.80;;
60969;SDS011;46841;48.938;9.502;2023-11-18T07:31:11;0.98;;;0.98;;
60969;SDS011;46841;48.938;9.502;2023-11-18T07:33:37;0.90;;;0.90;;
60969;SDS011;46841;48.938;9.502;2023-11-18T07:36:02;0.80;;;0.80;;
60969;SDS011;46841;48.938;9.502;2023-11-18T07:38:31;0.93;;;0.93;;
60969;SDS011;46841;48.938;9.502;2023-11-18T07:40:58;0.90;;;0.90;;
60969;SDS011;46841;48.938;9.502;2023-11-18T07:43:23;0.90;;;0.90;;
60969;SDS011;46841;48.938;9.502;2023-11-18T07:45:49;0.80;;;0.80;;
60969;SDS011;46841;48.938;9.502;2023-11-18T07:48:17;0.90;;;0.90;;
60969;SDS011;46841;48.938;9.502;2023-11-18T07:50:43;0.90;;;0.90;;
60969;SDS011;46841;48.938;9.502;2023-11-18T07:53:12;1.00;;;1.00;;
60969;SDS011;46841;48.938;9.502;2023-11-18T07:55:39;1.10;;;1.10;;
60969;SDS011;46841;48.938;9.502;2023-11-18T07:58:05;0.90;;;0.90;;
60969;SDS011;46841;48.938;9.502;2023-11-18T08:00:42;1.00;;;1.00;;
60969;SDS011;46841;48.938;9.502;2023-11-18T08:03:10;0.90;;;0.90;;
60969;SDS011;46841;48.938;9.502;2023-11-18T08:05:43;0.80;;;0.80;;
60969;SDS011;46841;48.938;9.502;2023-11-18T08:08:10;0.80;;;0.80;;
60969;SDS011;46841;48.938;9.502;2023-11-18T08:10:37;0.70;;;0.70;;
60969;SDS011;46841;48.938;9.502;2023-11-18T08:13:04;0.80;;;0.80;;
60969;SDS011;46841;48.938;9.502;2023-11-18T08:15:43;0.80;;;0.80;;
60969;SDS011;46841;48.938;9.502;2023-11-18T08:18:10;0.70;;;0.70;;
60969;SDS011;46841;48.938;9.502;2023-11-18T08:20:36;0.80;;;0.80;;
60969;SDS011;46841;48.938;9.502;2023-11-18T08:23:02;0.80;;;0.80;;
60969;SDS011;46841;48.938;9.502;2023-11-18T08:25:30;0.80;;;0.80;;
60969;SDS011;46841;48.938;9.502;2023-11-18T08:27:58;0.80;;;0.80;;
60969;SDS011;46841;48.938;9.502;2023-11-18T08:30:23;0.80;;;0.80;;
60969;SDS011;46841;48.938;9.502;2023-11-18T08:32:49;0.80;;;0.80;;
60969;SDS011;46841;48.938;9.502;2023-11-18T08:35:14;0.80;;;0.80;;
60969;SDS011;46841;48.938;9.502;2023-11-18T08:37:41;0.80;;;0.80;;
60969;SDS011;46841;48.938;9.502;2023-11-18T08:40:13;0.77;;;0.77;;
60969;SDS011;46841;48.938;9.502;2023-11-18T08:42:50;0.80;;;0.80;;
60969;SDS011;46841;48.938;9.502;2023-11-18T08:45:16;0.70;;;0.70;;
60969;SDS011;46841;48.938;9.502;2023-11-18T08:47:43;0.80;;;0.80;;
60969;SDS011;46841;48.938;9.502;2023-11-18T08:50:09;0.73;;;0.73;;
60969;SDS011;46841;48.938;9.502;2023-11-18T08:52:37;0.73;;;0.73;;
60969;SDS011;46841;48.938;9.502;2023-11-18T08:55:09;0.75;;;0.75;;
60969;SDS011;46841;48.938;9.502;2023-11-18T08:57:42;0.70;;;0.70;;
60969;SDS011;46841;48.938;9.502;2023-11-18T09:00:24;0.70;;;0.70;;
60969;SDS011;46841;48.938;9.502;2023-11-18T09:03:14;0.70;;;0.70;;
60969;SDS011;46841;48.938;9.502;2023-11-18T09:06:00;0.70;;;0.70;;
60969;SDS011;46841;48.938;9.502;2023-11-18T09:08:42;0.70;;;0.70;;
60969;SDS011;46841;48.938;9.502;2023-11-18T09:11:09;0.80;;;0.80;;
60969;SDS011;46841;48.938;9.502;2023-11-18T09:13:40;0.70;;;0.70;;
60969;SDS011;46841;48.938;9.502;2023-11-18T09:16:08;0.70;;;0.70;;
60969;SDS011;46841;48.938;9.502;2023-11-18T09:18:34;0.70;;;0.70;;
60969;SDS011;46841;48.938;9.502;2023-11-18T09:21:00;0.70;;;0.70;;
60969;SDS011;46841;48.938;9.502;2023-11-18T09:25:54;0.68;;;0.68;;
60969;SDS011;46841;48.938;9.502;2023-11-18T09:28:20;0.60;;;0.60;;
60969;SDS011;46841;48.938;9.502;2023-11-18T09:30:48;0.68;;;0.68;;
60969;SDS011;46841;48.938;9.502;2023-11-18T09:33:19;0.70;;;0.70;;
60969;SDS011;46841;48.938;9.502;2023-11-18T09:38:28;0.50;;;0.50;;
60969;SDS011;46841;48.938;9.502;2023-11-18T09:40:58;0.60;;;0.60;;
60969;SDS011;46841;48.938;9.502;2023-11-18T09:43:30;0.60;;;0.60;;
60969;SDS011;46841;48.938;9.502;2023-11-18T09:46:07;0.50;;;0.50;;
60969;SDS011;46841;48.938;9.502;2023-11-18T09:51:28;0.60;;;0.60;;
60969;SDS011;46841;48.938;9.502;2023-11-18T09:54:01;0.60;;;0.60;;
60969;SDS011;46841;48.938;9.502;2023-11-18T09:56:45;0.60;;;0.60;;
60969;SDS011;46841;48.938;9.502;2023-11-18T09:59:34;0.60;;;0.60;;
60969;SDS011;46841;48.938;9.502;2023-11-18T10:02:23;0.60;;;0.60;;
60969;SDS011;46841;48.938;9.502;2023-11-18T10:04:49;0.60;;;0.60;;
60969;SDS011;46841;48.938;9.502;2023-11-18T10:07:23;0.60;;;0.60;;
60969;SDS011;46841;48.938;9.502;2023-11-18T10:09:54;0.60;;;0.60;;
60969;SDS011;46841;48.938;9.502;2023-11-18T10:12:22;0.60;;;0.60;;
60969;SDS011;46841;48.938;9.502;2023-11-18T10:14:49;0.60;;;0.60;;
60969;SDS011;46841;48.938;9.502;2023-11-18T10:17:17;0.60;;;0.60;;
60969;SDS011;46841;48.938;9.502;2023-11-18T10:22:37;0.50;;;0.50;;
60969;SDS011;46841;48.938;9.502;2023-11-18T10:25:03;0.60;;;0.60;;
60969;SDS011;46841;48.938;9.502;2023-11-18T10:27:31;0.50;;;0.50;;
60969;SDS011;46841;48.938;9.502;2023-11-18T10:30:05;0.50;;;0.50;;
60969;SDS011;46841;48.938;9.502;2023-11-18T10:32:44;0.60;;;0.60;;
60969;SDS011;46841;48.938;9.502;2023-11-18T10:35:21;0.50;;;0.50;;
60969;SDS011;46841;48.938;9.502;2023-11-18T10:37:48;0.60;;;0.60;;
60969;SDS011;46841;48.938;9.502;2023-11-18T10:40:14;0.60;;;0.60;;
60969;SDS011;46841;48.938;9.502;2023-11-18T10:42:40;0.50;;;0.50;;
60969;SDS011;46841;48.938;9.502;2023-11-18T10:45:08;0.55;;;0.55;;
60969;SDS011;46841;48.938;9.502;2023-11-18T10:47:38;0.60;;;0.60;;
60969;SDS011;46841;48.938;9.502;2023-11-18T10:50:07;0.60;;;0.60;;
60969;SDS011;46841;48.938;9.502;2023-11-18T10:52:34;0.63;;;0.63;;
60969;SDS011;46841;48.938;9.502;2023-11-18T10:55:02;0.60;;;0.60;;
60969;SDS011;46841;48.938;9.502;2023-11-18T10:57:36;0.60;;;0.60;;
60969;SDS011;46841;48.938;9.502;2023-11-18T11:02:38;0.60;;;0.60;;
60969;SDS011;46841;48.938;9.502;2023-11-18T11:05:06;0.60;;;0.60;;
60969;SDS011;46841;48.938;9.502;2023-11-18T11:07:33;0.70;;;0.70;;
60969;SDS011;46841;48.938;9.502;2023-11-18T11:10:01;0.60;;;0.60;;
60969;SDS011;46841;48.938;9.502;2023-11-18T11:12:33;0.60;;;0.60;;
60969;SDS011;46841;48.938;9.502;2023-11-18T11:15:17;0.60;;;0.60;;
60969;SDS011;46841;48.938;9.502;2023-11-18T11:17:54;0.60;;;0.60;;
60969;SDS011;46841;48.938;9.502;2023-11-18T11:20:34;0.60;;;0.60;;
60969;SDS011;46841;48.938;9.502;2023-11-18T11:28:56;0.70;;;0.70;;
60969;SDS011;46841;48.938;9.502;2023-11-18T11:34:09;0.70;;;0.70;;
60969;SDS011;46841;48.938;9.502;2023-11-18T11:36:47;0.60;;;0.60;;
60969;SDS011;46841;48.938;9.502;2023-11-18T11:39:16;0.70;;;0.70;;
60969;SDS011;46841;48.938;9.502;2023-11-18T11:41:50;0.60;;;0.60;;
60969;SDS011;46841;48.938;9.502;2023-11-18T11:44:17;0.63;;;0.63;;
60969;SDS011;46841;48.938;9.502;2023-11-18T11:46:47;0.60;;;0.60;;
60969;SDS011;46841;48.938;9.502;2023-11-18T11:49:19;0.70;;;0.70;;
60969;SDS011;46841;48.938;9.502;2023-11-18T11:54:52;0.77;;;0.77;;
60969;SDS011;46841;48.938;9.502;2023-11-18T11:57:28;0.70;;;0.70;;
60969;SDS011;46841;48.938;9.502;2023-11-18T11:59:54;0.70;;;0.70;;
60969;SDS011;46841;48.938;9.502;2023-11-18T12:02:21;0.70;;;0.70;;
60969;SDS011;46841;48.938;9.502;2023-11-18T12:04:56;0.60;;;0.60;;
60969;SDS011;46841;48.938;9.502;2023-11-18T12:07:31;0.70;;;0.70;;
60969;SDS011;46841;48.938;9.502;2023-11-18T12:10:07;0.60;;;0.60;;
60969;SDS011;46841;48.938;9.502;2023-11-18T12:12:33;0.70;;;0.70;;
60969;SDS011;46841;48.938;9.502;2023-11-18T12:14:59;0.60;;;0.60;;
60969;SDS011;46841;48.938;9.502;2023-11-18T12:23:19;0.63;;;0.63;;
60969;SDS011;46841;48.938;9.502;2023-11-18T12:25:48;0.60;;;0.60;;
60969;SDS011;46841;48.938;9.502;2023-11-18T12:28:19;0.60;;;0.60;;
60969;SDS011;46841;48.938;9.502;2023-11-18T12:31:02;0.60;;;0.60;;
60969;SDS011;46841;48.938;9.502;2023-11-18T12:47:51;0.63;;;0.63;;
60969;SDS011;46841;48.938;9.502;2023-11-18T12:50:21;0.70;;;0.70;;
60969;SDS011;46841;48.938;9.502;2023-11-18T12:52:52;0.60;;;0.60;;
60969;SDS011;46841;48.938;9.502;2023-11-18T12:55:18;0.65;;;0.65;;
60969;SDS011;46841;48.938;9.502;2023-11-18T12:57:45;0.70;;;0.70;;
60969;SDS011;46841;48.938;9.502;2023-11-18T13:00:12;0.70;;;0.70;;
60969;SDS011;46841;48.938;9.502;2023-11-18T13:02:42;0.60;;;0.60;;
60969;SDS011;46841;48.938;9.502;2023-11-18T13:05:07;0.63;;;0.63;;
60969;SDS011;46841;48.938;9.502;2023-11-18T13:07:38;0.70;;;0.70;;
60969;SDS011;46841;48.938;9.502;2023-11-18T13:10:05;0.70;;;0.70;;
60969;SDS011;46841;48.938;9.502;2023-11-18T13:12:31;0.70;;;0.70;;
60969;SDS011;46841;48.938;9.502;2023-11-18T13:14:56;0.60;;;0.60;;
60969;SDS011;46841;48.938;9.502;2023-11-18T13:17:22;0.60;;;0.60;;
60969;SDS011;46841;48.938;9.502;2023-11-18T13:19:48;0.60;;;0.60;;
60969;SDS011;46841;48.938;9.502;2023-11-18T13:22:16;0.70;;;0.70;;
60969;SDS011;46841;48.938;9.502;2023-11-18T13:24:44;0.70;;;0.70;;
60969;SDS011;46841;48.938;9.502;2023-11-18T13:27:12;0.70;;;0.70;;
60969;SDS011;46841;48.938;9.502;2023-11-18T13:29:43;0.60;;;0.60;;
60969;SDS011;46841;48.938;9.502;2023-11-18T13:32:18;0.70;;;0.70;;
60969;SDS011;46841;48.938;9.502;2023-11-18T13:34:48;0.60;;;0.60;;
60969;SDS011;46841;48.938;9.502;2023-11-18T13:37:13;0.60;;;0.60;;
60969;SDS011;46841;48.938;9.502;2023-11-18T13:39:42;0.60;;;0.60;;
60969;SDS011;46841;48.938;9.502;2023-11-18T13:42:21;0.60;;;0.60;;
60969;SDS011;46841;48.938;9.502;2023-11-18T13:44:48;0.70;;;0.70;;
60969;SDS011;46841;48.938;9.502;2023-11-18T13:47:18;0.70;;;0.70;;
60969;SDS011;46841;48.938;9.502;2023-11-18T13:49:45;0.57;;;0.57;;
60969;SDS011;46841;48.938;9.502;2023-11-18T13:52:15;0.70;;;0.70;;
60969;SDS011;46841;48.938;9.502;2023-11-18T13:54:43;0.70;;;0.70;;
60969;SDS011;46841;48.938;9.502;2023-11-18T13:57:10;0.70;;;0.70;;
60969;SDS011;46841;48.938;9.502;2023-11-18T13:59:37;0.67;;;0.67;;
60969;SDS011;46841;48.938;9.502;2023-11-18T14:02:03;0.80;;;0.80;;
60969;SDS011;46841;48.938;9.502;2023-11-18T14:04:29;0.70;;;0.70;;
60969;SDS011;46841;48.938;9.502;2023-11-18T14:06:59;0.60;;;0.60;;
60969;SDS011;46841;48.938;9.502;2023-11-18T14:09:29;0.70;;;0.70;;
60969;SDS011;46841;48.938;9.502;2023-11-18T14:11:55;0.70;;;0.70;;
60969;SDS011;46841;48.938;9.502;2023-11-18T14:14:21;0.70;;;0.70;;
60969;SDS011;46841;48.938;9.502;2023-11-18T14:16:48;0.60;;;0.60;;
60969;SDS011;46841;48.938;9.502;2023-11-18T14:19:14;0.60;;;0.60;;
60969;SDS011;46841;48.938;9.502;2023-11-18T14:21:40;0.60;;;0.60;;
60969;SDS011;46841;48.938;9.502;2023-11-18T14:24:10;0.73;;;0.73;;
60969;SDS011;46841;48.938;9.502;2023-11-18T14:26:39;0.70;;;0.70;;
60969;SDS011;46841;48.938;9.502;2023-11-18T14:29:06;0.63;;;0.63;;
60969;SDS011;46841;48.938;9.502;2023-11-18T14:31:34;0.70;;;0.70;;
60969;SDS011;46841;48.938;9.502;2023-11-18T14:34:00;0.70;;;0.70;;
60969;SDS011;46841;48.938;9.502;2023-11-18T14:36:26;0.70;;;0.70;;
60969;SDS011;46841;48.938;9.502;2023-11-18T14:38:52;0.70;;;0.70;;
60969;SDS011;46841;48.938;9.502;2023-11-18T14:41:18;0.70;;;0.70;;
60969;SDS011;46841;48.938;9.502;2023-11-18T14:46:11;0.60;;;0.60;;
60969;SDS011;46841;48.938;9.502;2023-11-18T14:48:36;0.70;;;0.70;;
60969;SDS011;46841;48.938;9.502;2023-11-18T14:51:02;0.60;;;0.60;;
60969;SDS011;46841;48.938;9.502;2023-11-18T14:53:29;0.80;;;0.80;;
60969;SDS011;46841;48.938;9.502;2023-11-18T14:55:55;0.77;;;0.77;;
60969;SDS011;46841;48.938;9.502;2023-11-18T15:00:48;0.70;;;0.70;;
60969;SDS011;46841;48.938;9.502;2023-11-18T15:03:13;0.70;;;0.70;;
60969;SDS011;46841;48.938;9.502;2023-11-18T15:05:41;0.70;;;0.70;;
60969;SDS011;46841;48.938;9.502;2023-11-18T15:08:09;0.70;;;0.70;;
60969;SDS011;46841;48.938;9.502;2023-11-18T15:10:34;0.70;;;0.70;;
60969;SDS011;46841;48.938;9.502;2023-11-18T15:13:02;0.70;;;0.70;;
60969;SDS011;46841;48.938;9.502;2023-11-18T15:15:29;0.60;;;0.60;;
60969;SDS011;46841;48.938;9.502;2023-11-18T15:17:59;0.60;;;0.60;;
60969;SDS011;46841;48.938;9.502;2023-11-18T15:20:28;0.70;;;0.70;;
60969;SDS011;46841;48.938;9.502;2023-11-18T15:22:54;0.70;;;0.70;;
60969;SDS011;46841;48.938;9.502;2023-11-18T15:25:20;0.70;;;0.70;;
60969;SDS011;46841;48.938;9.502;2023-11-18T15:27:46;0.70;;;0.70;;
60969;SDS011;46841;48.938;9.502;2023-11-18T15:30:13;0.80;;;0.80;;
60969;SDS011;46841;48.938;9.502;2023-11-18T15:32:39;0.70;;;0.70;;
60969;SDS011;46841;48.938;9.502;2023-11-18T15:35:14;0.70;;;0.70;;
60969;SDS011;46841;48.938;9.502;2023-11-18T15:37:41;0.70;;;0.70;;
60969;SDS011;46841;48.938;9.502;2023-11-18T15:40:11;0.65;;;0.65;;
60969;SDS011;46841;48.938;9.502;2023-11-18T15:42:41;0.80;;;0.80;;
60969;SDS011;46841;48.938;9.502;2023-11-18T15:45:11;0.70;;;0.70;;
60969;SDS011;46841;48.938;9.502;2023-11-18T15:47:39;0.70;;;0.70;;
60969;SDS011;46841;48.938;9.502;2023-11-18T15:50:07;0.70;;;0.70;;